createdAt,value
2023-01-30T00:01:25.086Z,-2.80
2023-01-30T00:03:52.048Z,-2.80
2023-01-30T00:06:18.899Z,-2.80
2023-01-30T00:08:45.821Z,-2.80
2023-01-30T00:11:13.459Z,-3.10
2023-01-30T00:13:40.576Z,-2.90
2023-01-30T00:16:09.626Z,-2.90
2023-01-30T00:18:37.268Z,-2.90
2023-01-30T00:21:05.562Z,-3.00
2023-01-30T00:23:33.108Z,-3.10
2023-01-30T00:26:00.031Z,-3.00
2023-01-30T00:28:26.932Z,-3.00
2023-01-30T00:30:54.459Z,-3.00
2023-01-30T00:33:24.071Z,-3.10
2023-01-30T00:35:52.391Z,-3.00
2023-01-30T00:38:19.190Z,-3.10
2023-01-30T00:40:46.561Z,-3.10
2023-01-30T00:43:35.674Z,-3.10
2023-01-30T00:46:21.988Z,-2.90
2023-01-30T00:48:49.017Z,-2.90
2023-01-30T00:51:15.818Z,-3.00
2023-01-30T00:53:42.579Z,-3.00
2023-01-30T00:56:09.327Z,-2.90
2023-01-30T00:58:36.107Z,-2.90
2023-01-30T01:01:03.221Z,-2.90
2023-01-30T01:03:30.015Z,-2.70
2023-01-30T01:05:56.771Z,-2.90
2023-01-30T01:08:23.600Z,-2.80
2023-01-30T01:10:50.358Z,-2.80
2023-01-30T01:13:17.160Z,-2.80
2023-01-30T01:15:44.021Z,-2.70
2023-01-30T01:18:10.785Z,-2.70
2023-01-30T01:20:37.601Z,-2.70
2023-01-30T01:23:04.383Z,-2.80
2023-01-30T01:25:31.215Z,-3.00
2023-01-30T01:27:57.962Z,-2.60
2023-01-30T01:30:24.789Z,-2.60
2023-01-30T01:32:51.529Z,-2.60
2023-01-30T01:35:20.000Z,-2.60
2023-01-30T01:37:47.220Z,-2.70
2023-01-30T01:40:36.490Z,-2.60
2023-01-30T01:43:14.747Z,-2.50
2023-01-30T01:45:41.550Z,-2.50
2023-01-30T01:48:12.828Z,-3.50
2023-01-30T01:50:53.972Z,-2.50
2023-01-30T01:53:21.970Z,-2.40
2023-01-30T01:55:50.119Z,-2.40
2023-01-30T01:58:25.780Z,-2.40
2023-01-30T02:00:52.625Z,-2.50
2023-01-30T02:03:23.078Z,-2.30
2023-01-30T02:05:51.935Z,-2.20
2023-01-30T02:08:39.559Z,-2.10
2023-01-30T02:11:27.550Z,-2.00
2023-01-30T02:13:54.311Z,-2.00
2023-01-30T02:16:21.683Z,-1.90
2023-01-30T02:18:48.495Z,-1.90
2023-01-30T02:21:33.748Z,-1.80
2023-01-30T02:25:11.396Z,-1.80
2023-01-30T02:27:57.493Z,-1.70
2023-01-30T02:30:47.962Z,-1.70
2023-01-30T02:33:28.038Z,-1.60
2023-01-30T02:36:13.771Z,-1.50
2023-01-30T02:39:05.031Z,-1.50
2023-01-30T02:41:59.226Z,-1.50
2023-01-30T02:44:59.203Z,-1.40
2023-01-30T02:47:39.121Z,-1.40
2023-01-30T02:50:13.443Z,-1.40
2023-01-30T02:52:40.464Z,-1.30
2023-01-30T02:55:10.699Z,-1.30
2023-01-30T02:57:38.625Z,-1.30
2023-01-30T03:00:06.771Z,-1.20
2023-01-30T03:02:50.743Z,-1.10
2023-01-30T03:05:21.087Z,-1.10
2023-01-30T03:08:03.857Z,-1.10
2023-01-30T03:10:36.878Z,-1.00
2023-01-30T03:13:28.714Z,-1.00
2023-01-30T03:16:02.895Z,-1.00
2023-01-30T03:18:29.730Z,1.20
2023-01-30T03:20:56.776Z,-1.10
2023-01-30T03:23:23.616Z,-0.90
2023-01-30T03:25:51.020Z,-0.90
2023-01-30T03:28:19.554Z,-0.90
2023-01-30T03:30:46.525Z,-0.90
2023-01-30T03:33:14.278Z,-0.80
2023-01-30T03:35:47.066Z,-0.90
2023-01-30T03:38:14.723Z,-1.00
2023-01-30T03:40:41.527Z,-0.80
2023-01-30T03:43:09.257Z,-0.90
2023-01-30T03:45:38.022Z,-1.00
2023-01-30T03:48:05.522Z,-0.90
2023-01-30T03:50:32.831Z,-0.90
2023-01-30T03:53:00.687Z,-0.90
2023-01-30T03:55:27.523Z,0.20
2023-01-30T03:57:56.551Z,-0.90
2023-01-30T04:00:24.656Z,-1.00
2023-01-30T04:02:52.224Z,-1.00
2023-01-30T04:05:20.560Z,-1.00
2023-01-30T04:07:58.459Z,-1.00
2023-01-30T04:10:25.981Z,-1.00
2023-01-30T04:12:53.035Z,-1.00
2023-01-30T04:15:20.472Z,-1.00
2023-01-30T04:17:52.880Z,-1.10
2023-01-30T04:20:38.827Z,-1.10
2023-01-30T04:23:05.713Z,-1.10
2023-01-30T04:25:32.567Z,-1.10
2023-01-30T04:28:00.461Z,-1.20
2023-01-30T04:30:32.107Z,-1.30
2023-01-30T04:33:21.663Z,-1.20
2023-01-30T04:35:54.645Z,-1.10
2023-01-30T04:38:22.018Z,0.00
2023-01-30T04:40:50.189Z,-0.90
2023-01-30T04:43:17.812Z,-0.90
2023-01-30T04:45:53.506Z,-0.80
2023-01-30T04:48:20.681Z,-0.80
2023-01-30T04:50:48.860Z,-0.80
2023-01-30T04:53:16.256Z,-0.80
2023-01-30T04:55:43.140Z,-0.80
2023-01-30T04:58:10.014Z,-0.90
2023-01-30T05:00:36.896Z,-0.70
2023-01-30T05:03:03.973Z,-0.70
2023-01-30T05:05:30.852Z,-0.70
2023-01-30T05:07:57.648Z,-0.90
2023-01-30T05:10:27.361Z,-0.70
2023-01-30T05:12:54.107Z,-0.70
2023-01-30T05:15:21.169Z,-0.70
2023-01-30T05:18:13.071Z,-0.80
2023-01-30T05:20:39.851Z,2.30
2023-01-30T05:27:07.403Z,-0.60
2023-01-30T05:29:34.202Z,-0.80
2023-01-30T05:32:01.012Z,-0.60
2023-01-30T05:34:27.900Z,1.40
2023-01-30T05:36:54.689Z,-0.70
2023-01-30T05:39:21.536Z,-0.60
2023-01-30T05:41:48.341Z,-0.60
2023-01-30T05:44:15.145Z,-0.60
2023-01-30T05:46:41.966Z,-0.60
2023-01-30T05:49:14.868Z,-0.60
2023-01-30T05:51:41.679Z,-0.60
2023-01-30T05:54:08.518Z,-0.60
2023-01-30T05:56:35.525Z,-0.60
2023-01-30T05:59:15.675Z,-0.60
2023-01-30T06:01:42.564Z,1.70
2023-01-30T06:04:09.448Z,-0.60
2023-01-30T06:06:36.324Z,-0.60
2023-01-30T06:09:03.242Z,1.10
2023-01-30T06:11:30.345Z,-0.60
2023-01-30T06:13:57.134Z,1.50
2023-01-30T06:16:23.997Z,-0.60
2023-01-30T06:18:50.809Z,-0.60
2023-01-30T06:21:17.593Z,-0.60
2023-01-30T06:23:44.510Z,-0.70
2023-01-30T06:26:11.391Z,-0.60
2023-01-30T06:28:38.425Z,0.10
2023-01-30T06:31:08.516Z,-0.60
2023-01-30T06:33:35.571Z,-0.50
2023-01-30T06:36:02.461Z,-0.60
2023-01-30T06:38:29.313Z,2.50
2023-01-30T06:40:56.110Z,-0.50
2023-01-30T06:43:22.962Z,-0.50
2023-01-30T06:45:49.820Z,-0.50
2023-01-30T06:48:16.638Z,-0.50
2023-01-30T06:50:43.827Z,-0.50
2023-01-30T06:53:10.946Z,-0.50
2023-01-30T06:55:38.428Z,-0.50
2023-01-30T06:58:09.880Z,-0.50
2023-01-30T07:00:36.959Z,-0.50
2023-01-30T07:03:03.827Z,-0.50
2023-01-30T07:05:30.720Z,-0.30
2023-01-30T07:07:57.532Z,-0.50
2023-01-30T07:10:26.170Z,-0.50
2023-01-30T07:12:53.589Z,-0.50
2023-01-30T07:15:20.693Z,-0.50
2023-01-30T07:17:47.625Z,-0.50
2023-01-30T07:20:14.502Z,-0.50
2023-01-30T07:22:41.279Z,-0.50
2023-01-30T07:25:08.514Z,-0.50
2023-01-30T07:27:35.357Z,-0.50
2023-01-30T07:30:02.658Z,-0.50
2023-01-30T07:32:30.049Z,-0.40
2023-01-30T07:34:56.886Z,-0.60
2023-01-30T07:37:23.722Z,-0.50
2023-01-30T07:39:50.560Z,-0.50
2023-01-30T07:42:17.425Z,2.70
2023-01-30T07:44:44.302Z,-0.70
2023-01-30T07:47:11.105Z,-0.50
2023-01-30T07:49:37.989Z,-0.40
2023-01-30T07:52:05.029Z,-0.50
2023-01-30T07:54:31.796Z,2.60
2023-01-30T07:56:58.568Z,-0.40
2023-01-30T07:59:25.421Z,-0.40
2023-01-30T08:01:52.212Z,-0.40
2023-01-30T08:04:19.087Z,-0.30
2023-01-30T08:06:46.036Z,-0.30
2023-01-30T08:09:12.824Z,-0.30
2023-01-30T08:11:39.656Z,-0.30
2023-01-30T08:14:06.607Z,0.90
2023-01-30T08:16:34.155Z,-0.30
2023-01-30T08:19:01.100Z,-0.20
2023-01-30T08:21:28.223Z,-0.20
2023-01-30T08:23:55.082Z,-0.20
2023-01-30T08:26:21.954Z,-0.20
2023-01-30T08:28:48.800Z,-0.10
2023-01-30T08:31:16.015Z,-0.10
2023-01-30T08:33:43.001Z,-0.10
2023-01-30T08:36:09.857Z,-0.10
2023-01-30T08:38:36.955Z,-0.10
2023-01-30T08:41:08.180Z,0.00
2023-01-30T08:43:35.200Z,0.00
2023-01-30T08:46:02.191Z,0.00
2023-01-30T08:48:34.124Z,0.10
2023-01-30T08:51:06.779Z,0.10
2023-01-30T08:53:33.663Z,0.10
2023-01-30T08:56:00.470Z,0.00
2023-01-30T08:58:27.266Z,0.00
2023-01-30T09:00:54.070Z,0.10
2023-01-30T09:03:20.891Z,0.10
2023-01-30T09:05:47.677Z,0.10
2023-01-30T09:08:14.479Z,0.10
2023-01-30T09:10:41.270Z,2.20
2023-01-30T09:13:09.698Z,0.20
2023-01-30T09:15:37.614Z,0.10
2023-01-30T09:18:05.122Z,0.20
2023-01-30T09:20:32.033Z,0.30
2023-01-30T09:22:58.873Z,0.30
2023-01-30T09:25:25.729Z,0.40
2023-01-30T09:27:52.851Z,0.40
2023-01-30T09:30:20.296Z,3.30
2023-01-30T09:32:48.210Z,0.50
2023-01-30T09:35:15.215Z,0.50
2023-01-30T09:37:52.481Z,0.60
2023-01-30T09:40:24.178Z,1.90
2023-01-30T09:43:13.426Z,0.60
2023-01-30T09:46:09.664Z,0.70
2023-01-30T09:48:44.634Z,0.70
2023-01-30T09:51:13.771Z,0.70
2023-01-30T09:53:55.104Z,0.80
2023-01-30T09:56:21.878Z,0.90
2023-01-30T09:58:54.699Z,0.90
2023-01-30T10:01:24.010Z,1.00
2023-01-30T10:04:11.074Z,4.10
2023-01-30T10:06:43.596Z,1.00
2023-01-30T10:09:30.732Z,1.50
2023-01-30T10:12:16.437Z,1.10
2023-01-30T10:15:05.448Z,1.10
2023-01-30T10:17:46.771Z,1.10
2023-01-30T10:20:16.612Z,1.10
2023-01-30T10:22:52.275Z,1.00
2023-01-30T10:25:34.427Z,1.30
2023-01-30T10:28:06.495Z,1.30
2023-01-30T10:30:33.987Z,1.40
2023-01-30T10:33:22.631Z,1.40
2023-01-30T10:35:57.970Z,1.50
2023-01-30T10:38:41.599Z,1.40
2023-01-30T10:41:20.982Z,1.40
2023-01-30T10:43:54.711Z,1.50
2023-01-30T10:46:33.557Z,1.50
2023-01-30T10:49:06.544Z,1.60
2023-01-30T10:51:46.235Z,2.00
2023-01-30T10:54:34.098Z,2.20
2023-01-30T10:57:07.950Z,1.60
2023-01-30T11:00:05.706Z,1.60
2023-01-30T11:02:36.127Z,1.60
2023-01-30T11:05:24.369Z,1.50
2023-01-30T11:07:51.288Z,1.50
2023-01-30T11:10:19.975Z,1.60
2023-01-30T11:12:46.890Z,1.60
2023-01-30T11:15:13.821Z,1.60
2023-01-30T11:17:42.761Z,1.60
2023-01-30T11:20:41.844Z,2.20
2023-01-30T11:23:22.257Z,1.70
2023-01-30T11:26:10.595Z,1.80
2023-01-30T11:28:42.402Z,1.90
2023-01-30T11:31:39.925Z,1.90
2023-01-30T11:34:15.468Z,1.70
2023-01-30T11:36:42.423Z,1.90
2023-01-30T11:39:17.605Z,1.90
2023-01-30T11:41:53.909Z,2.00
2023-01-30T11:44:26.404Z,2.90
2023-01-30T11:46:53.204Z,4.30
2023-01-30T11:49:45.915Z,1.90
2023-01-30T11:52:08.711Z,2.10
2023-01-30T11:54:43.064Z,2.10
2023-01-30T11:57:17.478Z,2.20
2023-01-30T12:00:20.402Z,4.80
2023-01-30T12:02:48.308Z,2.40
2023-01-30T12:05:45.382Z,2.50
2023-01-30T12:08:31.162Z,2.50
2023-01-30T12:11:07.634Z,2.50
2023-01-30T12:13:38.838Z,2.40
2023-01-30T12:16:25.460Z,2.50
2023-01-30T12:19:10.401Z,2.60
2023-01-30T12:21:56.064Z,2.70
2023-01-30T12:25:01.700Z,2.70
2023-01-30T12:27:49.055Z,2.60
2023-01-30T12:30:34.905Z,4.60
2023-01-30T12:33:03.996Z,2.60
2023-01-30T12:35:47.809Z,3.00
2023-01-30T12:38:19.097Z,2.60
2023-01-30T12:41:08.686Z,2.60
2023-01-30T12:43:42.597Z,2.60
2023-01-30T12:46:25.934Z,2.60
2023-01-30T12:49:34.178Z,2.60
2023-01-30T12:52:05.395Z,2.50
2023-01-30T12:54:54.657Z,2.50
2023-01-30T13:02:26.433Z,2.50
2023-01-30T13:05:04.582Z,2.60
2023-01-30T13:07:39.274Z,2.60
2023-01-30T13:10:28.528Z,2.70
2023-01-30T13:13:12.095Z,2.70
2023-01-30T13:15:43.503Z,2.80
2023-01-30T13:18:21.044Z,2.80
2023-01-30T13:21:06.730Z,2.80
2023-01-30T13:23:53.983Z,2.90
2023-01-30T13:26:27.086Z,2.90
2023-01-30T13:28:57.531Z,2.90
2023-01-30T13:31:25.972Z,2.90
2023-01-30T13:34:24.984Z,2.80
2023-01-30T13:36:54.527Z,3.00
2023-01-30T13:39:32.842Z,3.00
2023-01-30T13:41:59.753Z,3.10
2023-01-30T13:44:29.133Z,3.10
2023-01-30T13:46:56.154Z,3.10
2023-01-30T13:50:08.671Z,3.10
2023-01-30T13:52:44.754Z,3.10
2023-01-30T13:55:26.406Z,3.00
2023-01-30T13:58:02.320Z,3.00
2023-01-30T14:00:33.470Z,3.00
2023-01-30T14:03:03.436Z,2.90
2023-01-30T14:05:52.749Z,2.90
2023-01-30T14:08:25.528Z,2.90
2023-01-30T14:10:52.406Z,2.90
2023-01-30T14:13:19.197Z,2.80
2023-01-30T14:16:01.064Z,2.60
2023-01-30T14:18:31.463Z,2.80
2023-01-30T14:21:24.550Z,2.80
2023-01-30T14:23:56.442Z,2.70
2023-01-30T14:26:48.307Z,2.60
2023-01-30T14:29:37.366Z,2.70
2023-01-30T14:32:13.811Z,2.70
2023-01-30T14:34:56.023Z,2.60
2023-01-30T14:37:37.920Z,2.70
2023-01-30T14:40:27.392Z,2.60
2023-01-30T14:43:12.700Z,2.60
2023-01-30T14:45:49.085Z,2.60
2023-01-30T14:48:40.292Z,2.60
2023-01-30T14:51:15.872Z,2.60
2023-01-30T14:54:10.875Z,1.40
2023-01-30T14:56:43.689Z,2.50
2023-01-30T14:59:22.978Z,2.50
2023-01-30T15:02:13.278Z,2.40
2023-01-30T15:04:40.114Z,5.90
2023-01-30T15:07:29.177Z,2.40
2023-01-30T15:10:03.001Z,2.40
2023-01-30T15:13:07.672Z,2.40
2023-01-30T15:15:56.526Z,2.40
2023-01-30T15:18:48.946Z,2.40
2023-01-30T15:21:53.120Z,2.40
2023-01-30T15:24:19.850Z,2.30
2023-01-30T15:27:24.265Z,3.70
2023-01-30T15:30:16.868Z,2.30
2023-01-30T15:32:44.323Z,2.20
2023-01-30T15:35:17.778Z,2.10
2023-01-30T15:37:54.994Z,3.80
2023-01-30T15:40:22.751Z,2.20
2023-01-30T15:43:01.871Z,2.20
2023-01-30T15:45:51.057Z,2.20
2023-01-30T15:48:30.763Z,2.20
2023-01-30T15:50:59.032Z,2.30
2023-01-30T15:53:31.148Z,2.00
2023-01-30T15:55:59.180Z,2.30
2023-01-30T15:58:25.937Z,2.20
2023-01-30T16:00:54.885Z,2.30
2023-01-30T16:03:26.445Z,2.00
2023-01-30T16:05:55.362Z,2.20
2023-01-30T16:08:26.971Z,2.30
2023-01-30T16:10:54.008Z,2.30
2023-01-30T16:13:22.529Z,2.30
2023-01-30T16:16:01.351Z,2.30
2023-01-30T16:18:38.686Z,2.30
2023-01-30T16:21:10.820Z,2.30
2023-01-30T16:23:41.886Z,2.30
2023-01-30T16:26:13.641Z,2.30
2023-01-30T16:28:40.501Z,2.30
2023-01-30T16:31:08.624Z,2.30
2023-01-30T16:33:38.238Z,2.30
2023-01-30T16:36:25.378Z,2.30
2023-01-30T16:38:52.689Z,4.10
2023-01-30T16:41:36.183Z,2.20
2023-01-30T16:44:19.170Z,2.30
2023-01-30T16:46:59.281Z,2.20
2023-01-30T16:49:30.318Z,2.20
2023-01-30T16:52:18.763Z,2.20
2023-01-30T16:54:50.720Z,2.20
2023-01-30T16:57:36.324Z,2.20
2023-01-30T17:00:08.171Z,2.20
2023-01-30T17:02:39.812Z,2.20
2023-01-30T17:05:17.623Z,2.10
2023-01-30T17:07:44.451Z,2.10
2023-01-30T17:10:39.147Z,2.10
2023-01-30T17:13:34.626Z,2.10
2023-01-30T17:16:46.945Z,2.10
2023-01-30T17:19:14.420Z,2.10
2023-01-30T17:21:48.288Z,2.00
2023-01-30T17:24:19.842Z,2.10
2023-01-30T17:26:48.481Z,2.10
2023-01-30T17:29:28.942Z,2.10
2023-01-30T17:32:00.868Z,2.10
2023-01-30T17:34:28.872Z,1.80
2023-01-30T17:36:56.197Z,1.90
2023-01-30T17:39:25.635Z,2.10
2023-01-30T17:41:53.266Z,2.00
2023-01-30T17:44:20.067Z,1.80
2023-01-30T17:46:49.902Z,2.00
2023-01-30T17:49:17.990Z,2.00
2023-01-30T17:51:44.978Z,2.00
2023-01-30T17:54:12.254Z,2.00
2023-01-30T17:56:42.579Z,2.00
2023-01-30T17:59:17.483Z,2.00
2023-01-30T18:01:45.569Z,2.00
2023-01-30T18:04:12.552Z,2.60
2023-01-30T18:07:06.324Z,3.90
2023-01-30T18:09:33.173Z,3.50
2023-01-30T18:16:30.958Z,2.00
2023-01-30T18:23:20.172Z,2.00
2023-01-30T18:25:47.272Z,2.00
2023-01-30T18:28:14.024Z,1.80
2023-01-30T18:30:40.806Z,2.00
2023-01-30T18:33:07.677Z,2.00
2023-01-30T18:35:34.537Z,2.00
2023-01-30T18:38:02.886Z,2.00
2023-01-30T18:40:29.939Z,4.60
2023-01-30T18:42:56.783Z,1.90
2023-01-30T18:45:23.556Z,1.90
2023-01-30T18:47:52.663Z,2.70
2023-01-30T18:50:19.885Z,1.80
2023-01-30T18:52:48.053Z,1.90
2023-01-30T18:55:14.960Z,2.00
2023-01-30T18:57:41.715Z,4.20
2023-01-30T19:00:09.559Z,2.00
2023-01-30T19:02:36.522Z,1.90
2023-01-30T19:05:03.546Z,1.90
2023-01-30T19:07:30.290Z,1.90
2023-01-30T19:09:57.067Z,1.80
2023-01-30T19:12:42.484Z,1.80
2023-01-30T19:15:09.691Z,1.80
2023-01-30T19:17:36.458Z,1.80
2023-01-30T19:20:08.534Z,1.80
2023-01-30T19:22:35.283Z,1.80
2023-01-30T19:25:02.199Z,1.80
2023-01-30T19:27:28.994Z,1.80
2023-01-30T19:29:55.733Z,1.70
2023-01-30T19:32:22.505Z,1.70
2023-01-30T19:34:50.978Z,1.80
2023-01-30T19:37:17.791Z,1.70
2023-01-30T19:39:44.532Z,1.70
2023-01-30T19:42:11.383Z,1.70
2023-01-30T19:44:40.914Z,1.70
2023-01-30T19:47:07.674Z,1.70
2023-01-30T19:49:35.900Z,1.70
2023-01-30T19:52:03.483Z,1.70
2023-01-30T19:54:31.251Z,1.70
2023-01-30T19:57:00.067Z,1.70
2023-01-30T19:59:26.903Z,1.70
2023-01-30T20:01:53.673Z,1.70
2023-01-30T20:04:20.447Z,1.70
2023-01-30T20:06:49.820Z,1.70
2023-01-30T20:09:16.765Z,1.70
2023-01-30T20:11:43.704Z,1.70
2023-01-30T20:14:10.558Z,4.10
2023-01-30T20:16:37.461Z,1.80
2023-01-30T20:19:06.311Z,1.80
2023-01-30T20:21:33.502Z,1.60
2023-01-30T20:24:00.972Z,1.60
2023-01-30T20:26:29.841Z,1.60
2023-01-30T20:28:57.290Z,1.80
2023-01-30T20:31:25.871Z,1.80
2023-01-30T20:33:55.668Z,2.80
2023-01-30T20:36:22.423Z,1.70
2023-01-30T20:38:49.440Z,1.70
2023-01-30T20:41:17.771Z,1.70
2023-01-30T20:43:49.135Z,1.70
2023-01-30T20:46:20.776Z,1.60
2023-01-30T20:48:48.053Z,1.80
2023-01-30T20:51:26.043Z,1.70
2023-01-30T20:53:53.711Z,2.40
2023-01-30T20:56:20.877Z,4.00
2023-01-30T20:58:47.631Z,1.80
2023-01-30T21:01:18.026Z,1.80
2023-01-30T21:03:45.697Z,1.80
2023-01-30T21:06:12.481Z,1.80
2023-01-30T21:08:39.637Z,1.80
2023-01-30T21:11:14.214Z,1.80
2023-01-30T21:13:41.134Z,2.20
2023-01-30T21:16:11.505Z,1.80
2023-01-30T21:18:39.674Z,1.90
2023-01-30T21:21:07.555Z,1.80
2023-01-30T21:23:34.424Z,2.00
2023-01-30T21:26:05.998Z,1.80
2023-01-30T21:28:32.840Z,1.80
2023-01-30T21:31:18.086Z,1.70
2023-01-30T21:33:45.051Z,1.90
2023-01-30T21:36:12.428Z,1.80
2023-01-30T21:38:57.855Z,1.90
2023-01-30T21:41:49.266Z,1.70
2023-01-30T21:44:16.117Z,1.90
2023-01-30T21:46:47.557Z,1.80
2023-01-30T21:49:17.715Z,4.00
2023-01-30T21:51:45.571Z,1.80
2023-01-30T21:54:12.710Z,1.80
2023-01-30T21:56:40.139Z,3.50
2023-01-30T21:59:07.135Z,1.80
2023-01-30T22:01:34.640Z,1.90
2023-01-30T22:04:06.595Z,4.80
2023-01-30T22:06:33.410Z,3.60
2023-01-30T22:09:00.972Z,1.80
2023-01-30T22:11:28.205Z,1.90
2023-01-30T22:13:55.312Z,1.90
2023-01-30T22:16:26.792Z,1.90
2023-01-30T22:18:58.183Z,1.90
2023-01-30T22:21:26.700Z,1.90
2023-01-30T22:23:54.016Z,1.70
2023-01-30T22:26:22.999Z,1.90
2023-01-30T22:28:54.325Z,1.70
2023-01-30T22:31:21.523Z,1.90
2023-01-30T22:33:53.728Z,1.90
2023-01-30T22:36:21.075Z,1.80
2023-01-30T22:38:48.757Z,1.80
2023-01-30T22:41:18.431Z,1.80
2023-01-30T22:43:46.596Z,1.80
2023-01-30T22:46:13.795Z,1.60
2023-01-30T22:48:40.708Z,1.80
2023-01-30T22:51:13.465Z,1.80
2023-01-30T22:53:44.520Z,1.90
2023-01-30T22:56:16.493Z,1.80
2023-01-30T22:58:43.531Z,1.90
2023-01-30T23:01:21.633Z,1.80
2023-01-30T23:03:52.589Z,1.80
2023-01-30T23:06:19.399Z,1.60
2023-01-30T23:08:47.103Z,1.80
2023-01-30T23:11:19.239Z,4.80
2023-01-30T23:13:47.864Z,1.80
2023-01-30T23:16:14.913Z,1.80
2023-01-30T23:18:58.189Z,1.80
2023-01-30T23:21:29.126Z,1.80
2023-01-30T23:24:00.629Z,1.70
2023-01-30T23:26:31.588Z,1.80
2023-01-30T23:28:58.498Z,1.60
2023-01-30T23:31:26.146Z,1.80
2023-01-30T23:33:57.466Z,1.80
2023-01-30T23:36:24.309Z,1.80
2023-01-30T23:38:52.049Z,1.80
2023-01-30T23:41:21.225Z,5.20
2023-01-30T23:43:48.180Z,4.60
2023-01-30T23:46:18.776Z,1.00
2023-01-30T23:48:46.712Z,1.80
2023-01-30T23:51:14.469Z,1.80
2023-01-30T23:53:41.545Z,1.80
2023-01-30T23:56:08.510Z,1.80
2023-01-30T23:58:35.429Z,1.80
